Accueil
METAR-TAF:

METAR-TAF

Aéroports :

Savoonga, Alaska, États-Unis

latitude: 63-41N, longitude: 170-30W, altitude: 16 m

Observation

Le bulletin a été fait il y a 34 minutes, à 11:56 UTC
Vent 7 kt de nord-est
Température -8°C
Humidité 79%
Pression 1005 hPa
Visibilité: 12.9 km
Nuages fragmentés à une hauteur de 1800 ft
Ciel couvert à une hauteur de 2400 ft
neige faible

METAR: PASA 181156Z AUTO 04007KT 8SM -SN BKN018 OVC024 M08/M11 A2968 RMK AO2 SLP051 P0000 60000 T10781106 11072 21078 56020 FZRANO

Heure: 03:30 (12:30 UTC)


TAF: absent

Observations et prévisions météorologiques de plus de 4000 aéroports (messages METAR et TAF).

Les stations disponibles sont représentées par des disques jaunes et rouges sur la carte.

Passer la souris dessus pour voir le nom de la station.

Cliquer dessus pour voir les observations et prévisions météorologiques.

Pour changer de carte: cliquez sur les boutons verts avec une croix noire pour zoomer, sur le bouton vert avec un tiret pour effectuer un zoom arrière, ou sur les flèches vertes pour les cartes adjacentes.


METAR-TAF: